createdAt,value
2022-08-07T00:02:36.495Z,54.04
2022-08-07T00:05:05.771Z,54.13
2022-08-07T00:07:40.070Z,54.37
2022-08-07T00:10:27.350Z,54.56
2022-08-07T00:13:09.852Z,54.36
2022-08-07T00:15:51.515Z,54.32
2022-08-07T00:18:24.446Z,54.61
2022-08-07T00:20:55.156Z,54.84
2022-08-07T00:23:28.496Z,54.83
2022-08-07T00:26:04.127Z,54.61
2022-08-07T00:28:45.863Z,54.72
2022-08-07T00:31:26.039Z,55.18
2022-08-07T00:34:08.970Z,54.98
2022-08-07T00:36:38.682Z,55.23
2022-08-07T00:39:16.940Z,55.19
2022-08-07T00:42:02.455Z,55.28
2022-08-07T00:44:38.201Z,55.31
2022-08-07T00:47:16.028Z,55.76
2022-08-07T00:50:20.351Z,55.81
2022-08-07T00:52:47.318Z,55.80
2022-08-07T00:55:17.239Z,55.84
2022-08-07T00:57:55.179Z,55.83
2022-08-07T01:00:27.688Z,55.87
2022-08-07T01:02:56.771Z,56.08
2022-08-07T01:05:28.013Z,55.99
2022-08-07T01:07:58.405Z,56.13
2022-08-07T01:10:27.143Z,56.40
2022-08-07T01:12:55.898Z,56.48
2022-08-07T01:15:35.905Z,57.03
2022-08-07T01:18:17.081Z,57.08
2022-08-07T01:20:59.293Z,57.26
2022-08-07T01:23:34.671Z,57.58
2022-08-07T01:26:11.957Z,57.65
2022-08-07T01:28:45.834Z,58.04
2022-08-07T01:31:17.775Z,58.01
2022-08-07T01:33:56.108Z,57.97
2022-08-07T01:36:33.533Z,58.17
2022-08-07T01:39:09.511Z,58.17
2022-08-07T01:41:40.839Z,58.27
2022-08-07T01:44:27.800Z,58.45
2022-08-07T01:46:56.532Z,58.52
2022-08-07T01:49:25.016Z,58.63
2022-08-07T01:52:03.473Z,58.66
2022-08-07T01:54:37.815Z,58.93
2022-08-07T01:57:08.964Z,59.19
2022-08-07T01:59:55.000Z,59.19
2022-08-07T02:03:11.251Z,59.03
2022-08-07T02:05:43.065Z,59.32
2022-08-07T02:08:17.351Z,59.38
2022-08-07T02:10:55.457Z,59.13
2022-08-07T02:13:57.664Z,59.67
2022-08-07T02:16:28.737Z,59.39
2022-08-07T02:19:05.366Z,59.51
2022-08-07T02:21:58.587Z,59.77
2022-08-07T02:24:30.267Z,59.92
2022-08-07T02:27:02.965Z,60.62
2022-08-07T02:29:32.913Z,60.29
2022-08-07T02:32:06.632Z,60.36
2022-08-07T02:34:49.019Z,60.52
2022-08-07T02:37:21.392Z,60.69
2022-08-07T02:40:02.546Z,60.31
2022-08-07T02:42:43.849Z,60.77
2022-08-07T02:45:58.417Z,60.74
2022-08-07T02:48:05.249Z,60.84
2022-08-07T02:50:43.639Z,61.18
2022-08-07T02:53:16.344Z,61.20
2022-08-07T02:56:03.413Z,61.11
2022-08-07T02:58:36.692Z,61.13
2022-08-07T03:01:10.345Z,61.22
2022-08-07T03:03:49.827Z,61.42
2022-08-07T03:06:26.240Z,61.58
2022-08-07T03:09:02.897Z,61.79
2022-08-07T03:11:38.974Z,62.16
2022-08-07T03:14:23.225Z,62.02
2022-08-07T03:16:54.061Z,62.32
2022-08-07T03:19:22.683Z,62.43
2022-08-07T03:21:52.202Z,62.45
2022-08-07T03:24:26.925Z,62.73
2022-08-07T03:27:00.430Z,63.16
2022-08-07T03:29:36.685Z,62.98
2022-08-07T03:32:13.397Z,63.31
2022-08-07T03:34:47.628Z,63.34
2022-08-07T03:37:37.340Z,63.55
2022-08-07T03:40:16.926Z,63.62
2022-08-07T03:42:46.040Z,63.96
2022-08-07T03:45:30.153Z,64.08
2022-08-07T03:48:00.273Z,63.84
2022-08-07T03:50:29.663Z,63.88
2022-08-07T03:53:00.256Z,64.27
2022-08-07T03:55:52.953Z,63.98
2022-08-07T03:59:06.730Z,64.10
2022-08-07T04:01:11.665Z,63.48
2022-08-07T04:03:53.390Z,63.43
2022-08-07T04:06:37.761Z,63.12
2022-08-07T04:09:11.762Z,62.92
2022-08-07T04:12:21.414Z,62.75
2022-08-07T04:14:38.625Z,63.01
2022-08-07T04:17:16.471Z,62.84
2022-08-07T04:19:54.072Z,62.82
2022-08-07T04:22:29.243Z,63.05
2022-08-07T04:25:01.640Z,63.01
2022-08-07T04:27:35.536Z,62.87
2022-08-07T04:30:11.631Z,62.91
2022-08-07T04:32:44.898Z,62.42
2022-08-07T04:35:16.351Z,62.92
2022-08-07T04:38:05.397Z,62.70
2022-08-07T04:40:33.361Z,62.55
2022-08-07T04:43:03.273Z,62.38
2022-08-07T04:45:58.093Z,61.67
2022-08-07T04:48:40.646Z,61.48
2022-08-07T04:51:17.428Z,61.53
2022-08-07T04:54:06.508Z,61.51
2022-08-07T04:58:12.967Z,61.78
2022-08-07T05:00:10.783Z,61.51
2022-08-07T05:02:29.184Z,61.54
2022-08-07T05:05:11.968Z,61.94
2022-08-07T05:07:57.940Z,61.75
2022-08-07T05:10:33.125Z,59.25
2022-08-07T05:14:44.311Z,58.82
2022-08-07T05:15:59.205Z,59.53
2022-08-07T05:18:36.620Z,59.18
2022-08-07T05:21:10.857Z,58.29
2022-08-07T05:23:43.333Z,58.49
2022-08-07T05:26:24.097Z,58.89
2022-08-07T05:28:57.382Z,59.29
2022-08-07T05:31:35.277Z,59.53
2022-08-07T05:34:11.184Z,59.75
2022-08-07T05:36:43.084Z,59.50
2022-08-07T05:40:17.371Z,59.42
2022-08-07T05:42:05.276Z,59.43
2022-08-07T05:44:37.835Z,59.75
2022-08-07T05:47:19.918Z,60.20
2022-08-07T05:49:50.036Z,59.75
2022-08-07T05:52:20.636Z,58.92
2022-08-07T05:55:10.329Z,58.73
2022-08-07T05:57:41.979Z,57.89
2022-08-07T06:00:16.261Z,57.35
2022-08-07T06:02:51.402Z,56.53
2022-08-07T06:05:25.871Z,56.07
2022-08-07T06:08:29.564Z,56.31
2022-08-07T06:10:49.417Z,55.92
2022-08-07T06:14:12.257Z,55.16
2022-08-07T06:16:10.327Z,55.24
2022-08-07T06:18:43.331Z,55.12
2022-08-07T06:22:15.514Z,55.25
2022-08-07T06:24:50.730Z,54.62
2022-08-07T06:26:59.681Z,54.45
2022-08-07T06:29:33.916Z,54.13
2022-08-07T06:32:02.611Z,53.89
2022-08-07T06:34:33.060Z,54.09
2022-08-07T06:37:02.456Z,53.01
2022-08-07T06:40:13.545Z,53.58
2022-08-07T06:42:32.979Z,53.66
2022-08-07T06:45:05.559Z,52.39
2022-08-07T06:47:48.027Z,51.71
2022-08-07T06:50:27.147Z,52.09
2022-08-07T06:53:04.095Z,52.43
2022-08-07T06:56:00.032Z,51.28
2022-08-07T06:58:28.727Z,51.52
2022-08-07T07:00:59.371Z,51.44
2022-08-07T07:03:48.852Z,51.70
2022-08-07T07:06:23.749Z,50.41
2022-08-07T07:08:54.645Z,50.95
2022-08-07T07:12:08.937Z,49.31
2022-08-07T07:14:14.163Z,49.41
2022-08-07T07:16:50.774Z,49.71
2022-08-07T07:19:56.309Z,49.01
2022-08-07T07:22:36.236Z,48.85
2022-08-07T07:26:30.773Z,48.39
2022-08-07T07:28:07.754Z,48.34
2022-08-07T07:31:01.138Z,47.47
2022-08-07T07:33:29.739Z,47.18
2022-08-07T07:36:05.543Z,46.64
2022-08-07T07:38:45.904Z,46.93
2022-08-07T07:41:17.580Z,47.34
2022-08-07T07:44:16.823Z,47.26
2022-08-07T07:46:55.329Z,45.82
2022-08-07T07:50:33.642Z,45.77
2022-08-07T07:52:19.016Z,44.76
2022-08-07T07:54:50.537Z,44.37
2022-08-07T07:57:44.372Z,44.70
2022-08-07T08:00:21.059Z,44.51
2022-08-07T08:03:07.869Z,45.28
2022-08-07T08:05:54.481Z,44.48
2022-08-07T08:08:36.305Z,45.10
2022-08-07T08:11:09.016Z,43.31
2022-08-07T08:13:54.029Z,42.49
2022-08-07T08:16:34.994Z,43.82
2022-08-07T08:19:17.416Z,43.07
2022-08-07T08:22:15.889Z,43.66
2022-08-07T08:25:24.865Z,43.41
2022-08-07T08:28:01.756Z,43.03
2022-08-07T08:30:35.067Z,43.00
2022-08-07T08:33:16.860Z,42.74
2022-08-07T08:35:49.894Z,42.61
2022-08-07T08:38:25.779Z,41.82
2022-08-07T08:41:05.069Z,42.80
2022-08-07T08:43:42.854Z,40.87
2022-08-07T08:46:44.973Z,40.69
2022-08-07T08:49:33.147Z,41.31
2022-08-07T08:52:13.729Z,40.69
2022-08-07T08:54:51.008Z,41.30
2022-08-07T08:57:30.390Z,40.86
2022-08-07T09:00:07.950Z,41.46
2022-08-07T09:02:49.507Z,41.60
2022-08-07T09:05:38.697Z,40.24
2022-08-07T09:08:28.794Z,40.58
2022-08-07T09:11:24.787Z,39.95
2022-08-07T09:14:12.296Z,40.60
2022-08-07T09:16:55.572Z,40.82
2022-08-07T09:19:53.503Z,39.99
2022-08-07T09:24:31.728Z,39.90
2022-08-07T09:25:40.460Z,39.16
2022-08-07T09:30:06.430Z,40.32
2022-08-07T09:31:15.596Z,39.16
2022-08-07T09:34:00.190Z,39.14
2022-08-07T09:36:37.068Z,37.80
2022-08-07T09:39:52.651Z,36.97
2022-08-07T09:42:22.915Z,37.48
2022-08-07T09:46:28.604Z,35.71
2022-08-07T09:48:11.742Z,36.30
2022-08-07T09:50:52.505Z,36.74
2022-08-07T09:53:23.622Z,36.33
2022-08-07T09:56:19.676Z,37.22
2022-08-07T09:59:35.645Z,35.36
2022-08-07T10:02:35.792Z,36.50
2022-08-07T10:05:59.101Z,35.80
2022-08-07T10:08:43.941Z,35.66
2022-08-07T10:12:02.721Z,35.91
2022-08-07T10:14:31.205Z,35.23
2022-08-07T10:17:14.116Z,35.64
2022-08-07T10:19:56.321Z,36.53
2022-08-07T10:22:50.973Z,36.71
2022-08-07T10:25:42.290Z,36.54
2022-08-07T10:28:25.963Z,37.35
2022-08-07T10:31:10.978Z,36.47
2022-08-07T10:34:05.833Z,35.79
2022-08-07T10:36:58.809Z,33.60
2022-08-07T10:40:02.705Z,32.88
2022-08-07T10:42:39.766Z,32.58
2022-08-07T10:45:25.268Z,32.45
2022-08-07T10:48:34.975Z,30.99
2022-08-07T10:51:16.975Z,30.84
2022-08-07T10:54:07.973Z,31.10
2022-08-07T10:56:46.879Z,29.33
2022-08-07T10:59:30.334Z,28.51
2022-08-07T11:02:12.479Z,28.01
2022-08-07T11:05:11.168Z,28.35
2022-08-07T11:08:00.835Z,28.34
2022-08-07T11:10:37.970Z,29.20
2022-08-07T11:13:42.415Z,28.18
2022-08-07T11:16:08.178Z,28.32
2022-08-07T11:18:50.923Z,27.62
2022-08-07T11:21:31.898Z,27.90
2022-08-07T11:24:08.518Z,27.78
2022-08-07T11:26:48.018Z,29.47
2022-08-07T11:29:41.202Z,29.70
2022-08-07T11:32:25.873Z,30.79
2022-08-07T11:34:59.747Z,30.02
2022-08-07T11:37:58.317Z,28.74
2022-08-07T11:40:40.890Z,29.68
2022-08-07T11:43:41.239Z,29.73
2022-08-07T11:46:29.504Z,29.81
2022-08-07T11:50:25.593Z,30.35
2022-08-07T11:52:51.235Z,30.31
2022-08-07T11:56:25.235Z,30.75
2022-08-07T11:58:33.429Z,31.80
2022-08-07T12:01:20.175Z,31.43
2022-08-07T12:04:26.851Z,32.17
2022-08-07T12:07:03.921Z,32.29
2022-08-07T12:09:47.361Z,31.45
2022-08-07T12:12:26.480Z,31.10
2022-08-07T12:15:05.093Z,32.35
2022-08-07T12:17:58.875Z,33.20
2022-08-07T12:20:32.268Z,32.68
2022-08-07T12:23:17.859Z,33.29
2022-08-07T12:26:05.495Z,32.42
2022-08-07T12:28:53.960Z,32.49
2022-08-07T12:32:02.186Z,31.34
2022-08-07T12:34:27.472Z,31.79
2022-08-07T12:36:58.907Z,31.03
2022-08-07T12:39:43.869Z,31.05
2022-08-07T12:42:27.589Z,30.37
2022-08-07T12:45:00.256Z,30.81
2022-08-07T12:47:42.787Z,29.71
2022-08-07T12:50:33.994Z,28.59
2022-08-07T12:53:18.141Z,28.25
2022-08-07T12:56:02.452Z,27.55
2022-08-07T12:58:39.913Z,27.28
2022-08-07T13:01:19.554Z,27.34
2022-08-07T13:04:05.054Z,26.92
2022-08-07T13:07:03.971Z,27.42
2022-08-07T13:10:37.101Z,26.63
2022-08-07T13:13:00.608Z,26.01
2022-08-07T13:15:57.317Z,26.23
2022-08-07T13:18:38.453Z,25.86
2022-08-07T13:21:14.327Z,24.58
2022-08-07T13:24:11.531Z,24.73
2022-08-07T13:26:46.366Z,24.40
2022-08-07T13:29:21.733Z,24.49
2022-08-07T13:32:00.065Z,24.16
2022-08-07T13:34:44.814Z,24.32
2022-08-07T13:37:26.724Z,24.29
2022-08-07T13:40:41.736Z,23.97
2022-08-07T13:42:59.365Z,24.30
2022-08-07T13:46:16.405Z,24.16
2022-08-07T13:48:33.763Z,24.33
2022-08-07T13:51:27.510Z,24.27
2022-08-07T13:54:00.264Z,24.97
2022-08-07T13:56:36.119Z,24.76
2022-08-07T13:59:13.566Z,25.28
2022-08-07T14:01:51.541Z,25.07
2022-08-07T14:04:36.395Z,24.55
2022-08-07T14:07:10.455Z,25.12
2022-08-07T14:10:01.325Z,24.95
2022-08-07T14:12:41.655Z,25.38
2022-08-07T14:15:19.280Z,25.46
2022-08-07T14:18:15.963Z,25.66
2022-08-07T14:22:41.032Z,25.32
2022-08-07T14:24:00.261Z,24.83
2022-08-07T14:26:35.862Z,24.71
2022-08-07T14:30:05.596Z,24.29
2022-08-07T14:32:01.150Z,24.53
2022-08-07T14:34:31.952Z,25.84
2022-08-07T14:37:04.407Z,26.55
2022-08-07T14:40:16.565Z,27.21
2022-08-07T14:42:32.256Z,27.35
2022-08-07T14:47:58.712Z,28.48
2022-08-07T14:50:37.441Z,28.61
2022-08-07T14:53:09.777Z,28.12
2022-08-07T14:55:55.553Z,28.13
2022-08-07T14:58:32.520Z,27.89
2022-08-07T15:01:21.501Z,28.36
2022-08-07T15:03:53.357Z,27.32
2022-08-07T15:06:26.822Z,27.39
2022-08-07T15:09:47.125Z,27.89
2022-08-07T15:13:05.887Z,28.21
2022-08-07T15:14:57.776Z,28.42
2022-08-07T15:17:32.656Z,28.58
2022-08-07T15:20:33.205Z,29.08
2022-08-07T15:25:58.460Z,28.97
2022-08-07T15:32:00.765Z,29.14
2022-08-07T15:39:59.035Z,29.51
2022-08-07T15:42:51.825Z,29.69
2022-08-07T15:45:55.759Z,29.68
2022-08-07T15:48:31.611Z,29.48
2022-08-07T15:51:09.232Z,29.78
2022-08-07T15:53:52.363Z,29.55
2022-08-07T15:56:33.293Z,29.55
2022-08-07T15:59:06.121Z,29.58
2022-08-07T16:02:01.912Z,29.16
2022-08-07T16:04:34.161Z,29.18
2022-08-07T16:08:32.850Z,29.31
2022-08-07T16:10:03.785Z,29.29
2022-08-07T16:12:42.157Z,28.64
2022-08-07T16:15:57.705Z,29.13
2022-08-07T16:18:49.314Z,29.22
2022-08-07T16:22:01.183Z,28.60
2022-08-07T16:24:34.733Z,28.78
2022-08-07T16:27:17.873Z,28.86
2022-08-07T16:30:30.478Z,28.86
2022-08-07T16:34:06.022Z,28.98
2022-08-07T16:36:20.177Z,29.14
2022-08-07T16:39:33.622Z,29.72
2022-08-07T16:42:30.154Z,29.17
2022-08-07T16:46:21.191Z,29.74
2022-08-07T16:49:04.325Z,29.63
2022-08-07T16:52:01.877Z,29.95
2022-08-07T16:54:54.158Z,29.70
2022-08-07T16:58:01.813Z,29.47
2022-08-07T17:00:30.155Z,29.95
2022-08-07T17:03:58.275Z,30.33
2022-08-07T17:06:30.380Z,30.73
2022-08-07T17:09:13.981Z,30.99
2022-08-07T17:12:04.090Z,30.53
2022-08-07T17:14:44.996Z,30.72
2022-08-07T17:17:46.059Z,30.65
2022-08-07T17:20:30.061Z,31.05
2022-08-07T17:23:08.592Z,30.50
2022-08-07T17:25:54.571Z,31.86
2022-08-07T17:28:32.408Z,31.49
2022-08-07T17:31:15.669Z,31.00
2022-08-07T17:34:17.938Z,32.18
2022-08-07T17:36:57.463Z,31.90
2022-08-07T17:39:53.090Z,32.53
2022-08-07T17:42:59.620Z,32.05
2022-08-07T17:45:35.065Z,32.45
2022-08-07T17:48:12.658Z,32.46
2022-08-07T17:50:54.400Z,31.76
2022-08-07T17:54:00.711Z,32.08
2022-08-07T17:56:29.198Z,31.84
2022-08-07T17:59:08.961Z,31.99
2022-08-07T18:01:48.563Z,32.37
2022-08-07T18:04:31.221Z,31.55
2022-08-07T18:07:20.200Z,31.40
2022-08-07T18:10:06.273Z,31.74
2022-08-07T18:13:09.956Z,32.43
2022-08-07T18:15:53.576Z,32.04
2022-08-07T18:18:46.130Z,32.14
2022-08-07T18:21:37.338Z,32.10
2022-08-07T18:24:33.409Z,32.61
2022-08-07T18:27:38.408Z,32.70
2022-08-07T18:30:32.321Z,33.11
2022-08-07T18:33:34.716Z,33.62
2022-08-07T18:36:14.110Z,33.88
2022-08-07T18:40:07.164Z,33.75
2022-08-07T18:42:03.993Z,34.52
2022-08-07T18:47:49.075Z,34.81
2022-08-07T18:50:58.481Z,34.48
2022-08-07T18:53:45.153Z,34.56
2022-08-07T18:56:32.094Z,35.20
2022-08-07T18:59:47.208Z,35.00
2022-08-07T19:02:42.414Z,35.16
2022-08-07T19:05:21.293Z,35.14
2022-08-07T19:07:58.665Z,36.13
2022-08-07T19:10:49.614Z,35.57
2022-08-07T19:13:26.591Z,35.78
2022-08-07T19:16:04.759Z,35.98
2022-08-07T19:18:58.056Z,36.71
2022-08-07T19:21:44.136Z,37.24
2022-08-07T19:24:30.388Z,36.83
2022-08-07T19:28:58.035Z,37.33
2022-08-07T19:31:05.606Z,37.58
2022-08-07T19:32:50.887Z,38.00
2022-08-07T19:35:24.520Z,38.16
2022-08-07T19:37:58.312Z,38.51
2022-08-07T19:40:31.451Z,38.53
2022-08-07T19:43:09.393Z,38.52
2022-08-07T19:46:07.180Z,38.74
2022-08-07T19:48:42.999Z,38.80
2022-08-07T19:51:20.033Z,39.18
2022-08-07T19:54:32.173Z,39.39
2022-08-07T19:57:50.932Z,39.33
2022-08-07T19:59:40.509Z,39.36
2022-08-07T20:02:19.698Z,39.67
2022-08-07T20:05:00.412Z,39.51
2022-08-07T20:07:47.855Z,39.89
2022-08-07T20:10:37.041Z,40.16
2022-08-07T20:13:23.428Z,40.36
2022-08-07T20:15:57.811Z,40.74
2022-08-07T20:18:32.721Z,40.84
2022-08-07T20:21:21.571Z,41.06
2022-08-07T20:24:00.154Z,40.83
2022-08-07T20:26:32.385Z,41.21
2022-08-07T20:29:10.414Z,40.85
2022-08-07T20:31:46.530Z,41.62
2022-08-07T20:34:40.073Z,41.77
2022-08-07T20:37:10.092Z,41.58
2022-08-07T20:40:02.958Z,42.04
2022-08-07T20:42:32.293Z,42.20
2022-08-07T20:45:02.131Z,42.42
2022-08-07T20:47:55.524Z,42.57
2022-08-07T20:50:28.992Z,42.81
2022-08-07T20:53:00.270Z,42.68
2022-08-07T20:55:35.974Z,42.82
2022-08-07T20:58:08.874Z,42.94
2022-08-07T21:00:46.044Z,43.10
2022-08-07T21:03:18.919Z,42.67
2022-08-07T21:05:56.975Z,43.13
2022-08-07T21:08:36.536Z,42.94
2022-08-07T21:11:12.220Z,43.15
2022-08-07T21:14:16.180Z,43.35
2022-08-07T21:16:56.087Z,43.96
2022-08-07T21:19:32.340Z,43.55
2022-08-07T21:22:19.064Z,43.15
2022-08-07T21:25:04.723Z,43.35
2022-08-07T21:27:53.696Z,43.80
2022-08-07T21:30:30.089Z,44.02
2022-08-07T21:33:08.657Z,44.43
2022-08-07T21:36:05.277Z,44.80
2022-08-07T21:38:46.201Z,44.31
2022-08-07T21:41:25.758Z,44.51
2022-08-07T21:44:05.404Z,44.40
2022-08-07T21:46:42.008Z,44.53
2022-08-07T21:49:16.404Z,45.18
2022-08-07T21:52:06.251Z,45.11
2022-08-07T21:54:51.133Z,45.19
2022-08-07T21:57:44.638Z,44.93
2022-08-07T22:00:23.246Z,45.46
2022-08-07T22:03:03.608Z,45.24
2022-08-07T22:05:45.914Z,45.90
2022-08-07T22:08:21.728Z,45.79
2022-08-07T22:10:58.965Z,46.01
2022-08-07T22:13:50.980Z,46.00
2022-08-07T22:16:40.948Z,45.98
2022-08-07T22:19:29.380Z,46.30
2022-08-07T22:22:18.190Z,46.24
2022-08-07T22:25:02.969Z,46.10
2022-08-07T22:28:03.163Z,46.40
2022-08-07T22:30:30.918Z,45.92
2022-08-07T22:33:09.180Z,46.16
2022-08-07T22:35:42.894Z,46.07
2022-08-07T22:38:30.868Z,46.23
2022-08-07T22:41:07.433Z,46.22
2022-08-07T22:43:41.912Z,46.50
2022-08-07T22:47:02.483Z,46.27
2022-08-07T22:49:54.229Z,46.51
2022-08-07T22:52:46.385Z,46.88
2022-08-07T22:55:31.987Z,46.59
2022-08-07T22:58:45.041Z,47.52
2022-08-07T23:01:30.558Z,47.47
2022-08-07T23:04:35.182Z,47.69
2022-08-07T23:07:41.805Z,47.77
2022-08-07T23:10:38.014Z,47.64
2022-08-07T23:13:29.510Z,48.12
2022-08-07T23:16:46.344Z,48.16
2022-08-07T23:19:51.392Z,48.13
2022-08-07T23:22:36.012Z,48.32
2022-08-07T23:25:21.539Z,48.08
2022-08-07T23:28:29.025Z,48.10
2022-08-07T23:31:18.820Z,48.40
2022-08-07T23:34:43.175Z,48.40
2022-08-07T23:37:29.413Z,48.41
2022-08-07T23:40:13.748Z,48.21
2022-08-07T23:42:54.592Z,48.55
2022-08-07T23:46:01.448Z,48.63
2022-08-07T23:48:34.075Z,48.39
2022-08-07T23:52:55.916Z,48.11
2022-08-07T23:54:05.392Z,48.46
2022-08-07T23:56:53.981Z,48.27
